Time;durP1;ratioP1;P1;durP2;ratioP2;P2;SDS_P1;SDS_P2;PMS_P1;PMS_P2;Temp;Humidity;BMP_temperature;BMP_pressure;BME280_temperature;BME280_humidity;BME280_pressure;Samples;Min_cycle;Max_cycle;Signal;HPM_P1;HPM_P2
2024/03/19 00:01:34;;;;;;;7.68;1.55;;;11.60;99.90;;;;;;6196341;28;20069;-78
2024/03/19 00:04:35;;;;;;;9.10;1.48;;;11.60;99.90;;;;;;6177807;28;20058;-78
2024/03/19 00:07:35;;;;;;;8.82;1.75;;;11.60;99.90;;;;;;6199966;28;20061;-78
2024/03/19 00:10:36;;;;;;;10.38;1.67;;;11.60;99.90;;;;;;6182748;28;20064;-78
2024/03/19 00:13:40;;;;;;;9.13;1.80;;;11.60;99.90;;;;;;6200708;28;20124;-78
2024/03/19 00:16:49;;;;;;;7.65;1.40;;;11.60;99.90;;;;;;6201131;28;20521;-80
2024/03/19 00:19:49;;;;;;;7.40;1.48;;;11.60;99.90;;;;;;6201447;28;20060;-80
2024/03/19 00:22:50;;;;;;;11.73;1.90;;;11.60;99.90;;;;;;6200946;28;20049;-80
2024/03/19 00:25:51;;;;;;;10.65;1.50;;;11.60;99.90;;;;;;6199040;28;20062;-79
2024/03/19 00:28:51;;;;;;;5.15;1.38;;;11.60;99.90;;;;;;6165784;28;20065;-79
2024/03/19 00:31:52;;;;;;;9.90;1.60;;;11.60;99.90;;;;;;6201175;28;20093;-80
2024/03/19 00:34:53;;;;;;;8.07;1.70;;;11.60;99.90;;;;;;6179662;28;20066;-80
2024/03/19 00:37:53;;;;;;;9.25;1.52;;;11.60;99.90;;;;;;6204996;28;20057;-80
2024/03/19 00:40:54;;;;;;;8.45;1.60;;;11.70;99.90;;;;;;6198541;28;20521;-78
2024/03/19 00:43:55;;;;;;;7.88;1.58;;;11.60;99.90;;;;;;6178557;28;20492;-79
2024/03/19 00:46:56;;;;;;;8.00;1.70;;;11.60;99.90;;;;;;6204535;28;20065;-79
2024/03/19 00:49:56;;;;;;;9.93;1.65;;;11.60;99.90;;;;;;6201646;28;20426;-79
2024/03/19 00:52:57;;;;;;;10.27;1.85;;;11.60;99.90;;;;;;6205015;28;20533;-78
2024/03/19 00:55:59;;;;;;;9.23;1.75;;;11.60;99.90;;;;;;6204889;28;20054;-79
2024/03/19 00:58:59;;;;;;;8.98;1.60;;;11.60;99.90;;;;;;6171520;28;20130;-81
2024/03/19 01:02:00;;;;;;;8.40;1.75;;;11.60;99.90;;;;;;6204563;28;20076;-80
2024/03/19 01:05:01;;;;;;;8.50;1.77;;;11.70;99.90;;;;;;6181316;28;20103;-79
2024/03/19 01:08:01;;;;;;;8.48;1.60;;;11.60;99.90;;;;;;6204362;28;20099;-79
2024/03/19 01:11:02;;;;;;;10.45;1.80;;;11.60;99.90;;;;;;6181517;28;20465;-78
2024/03/19 01:14:03;;;;;;;8.90;1.60;;;11.60;99.90;;;;;;6189400;28;20066;-78
2024/03/19 01:17:04;;;;;;;8.95;1.58;;;11.60;99.90;;;;;;6203784;28;20057;-80
2024/03/19 01:20:09;;;;;;;7.32;1.65;;;11.60;99.90;;;;;;6202417;28;20146;-79
2024/03/19 01:23:10;;;;;;;7.32;1.70;;;11.60;99.90;;;;;;6202949;28;20105;-78
2024/03/19 01:26:11;;;;;;;8.52;1.80;;;11.60;99.90;;;;;;6204648;28;20505;-79
2024/03/19 01:29:11;;;;;;;10.13;1.88;;;11.60;99.90;;;;;;6185579;28;20111;-80
2024/03/19 01:32:12;;;;;;;11.35;2.10;;;11.60;99.90;;;;;;6204291;28;20080;-80
2024/03/19 01:35:13;;;;;;;10.20;2.13;;;11.60;99.90;;;;;;6164452;28;20203;-80
2024/03/19 01:38:13;;;;;;;9.07;1.40;;;11.50;99.90;;;;;;6203886;28;20050;-79
2024/03/19 01:41:14;;;;;;;12.18;1.77;;;11.50;99.90;;;;;;6201787;28;20057;-80
2024/03/19 01:44:16;;;;;;;8.48;1.58;;;11.40;99.90;;;;;;6178646;28;20607;-80
2024/03/19 01:47:17;;;;;;;9.45;1.55;;;11.40;99.90;;;;;;6203083;28;20076;-79
2024/03/19 01:50:19;;;;;;;6.88;1.58;;;11.40;99.90;;;;;;6202643;28;20433;-79
2024/03/19 01:53:20;;;;;;;10.18;2.00;;;11.30;99.90;;;;;;6187266;28;20390;-78
2024/03/19 01:56:21;;;;;;;12.65;2.03;;;11.30;99.90;;;;;;6186966;28;20054;-78
2024/03/19 01:59:21;;;;;;;12.60;2.05;;;11.20;99.90;;;;;;6185657;28;20057;-79
2024/03/19 02:02:22;;;;;;;10.60;2.17;;;11.20;99.90;;;;;;6202970;28;20057;-79
2024/03/19 02:05:22;;;;;;;12.82;2.10;;;11.10;99.90;;;;;;6179920;28;20054;-78
2024/03/19 02:08:23;;;;;;;15.13;2.40;;;11.00;99.90;;;;;;6187845;28;20151;-78
2024/03/19 02:11:24;;;;;;;11.52;1.92;;;10.90;99.90;;;;;;6203420;28;20053;-79
2024/03/19 02:14:24;;;;;;;12.95;2.13;;;10.80;99.90;;;;;;6190856;28;20062;-78
2024/03/19 02:17:25;;;;;;;10.52;1.92;;;10.80;99.90;;;;;;6202134;28;20611;-81
2024/03/19 02:20:26;;;;;;;11.63;2.05;;;10.70;99.90;;;;;;6203293;28;20050;-78
2024/03/19 02:23:26;;;;;;;10.50;2.00;;;10.60;99.90;;;;;;6201107;28;20501;-79
2024/03/19 02:26:27;;;;;;;11.43;2.10;;;10.60;99.90;;;;;;6203523;28;20501;-79
2024/03/19 02:29:28;;;;;;;10.88;1.90;;;10.50;99.90;;;;;;6181452;28;20493;-78
2024/03/19 02:32:29;;;;;;;12.45;1.95;;;10.50;99.90;;;;;;6186607;28;20056;-78
2024/03/19 02:35:30;;;;;;;12.50;1.75;;;10.50;99.90;;;;;;6200334;28;20053;-79
2024/03/19 02:38:31;;;;;;;11.10;1.85;;;10.50;99.90;;;;;;6201945;28;20053;-80
2024/03/19 02:41:31;;;;;;;9.55;1.75;;;10.50;99.90;;;;;;6204041;28;20053;-79
2024/03/19 02:44:32;;;;;;;13.55;2.17;;;10.60;99.90;;;;;;6193275;28;20062;-79
2024/03/19 02:47:32;;;;;;;9.73;1.95;;;10.50;99.90;;;;;;6181636;28;20069;-79
2024/03/19 02:50:33;;;;;;;12.82;2.22;;;10.50;99.90;;;;;;6203590;28;20049;-80
2024/03/19 02:53:34;;;;;;;13.13;2.00;;;10.50;99.90;;;;;;6200843;28;20054;-79
2024/03/19 02:56:35;;;;;;;8.65;2.03;;;10.50;99.90;;;;;;6201624;28;20068;-79
2024/03/19 02:59:36;;;;;;;8.98;2.20;;;10.50;99.90;;;;;;6183641;28;20092;-79
2024/03/19 03:02:37;;;;;;;10.10;1.90;;;10.50;99.90;;;;;;6202297;28;20050;-80
2024/03/19 03:05:38;;;;;;;10.57;2.13;;;10.50;99.90;;;;;;6202881;28;20402;-78
2024/03/19 03:08:38;;;;;;;12.68;2.10;;;10.60;99.90;;;;;;6184344;28;20136;-79
2024/03/19 03:11:39;;;;;;;8.38;1.90;;;10.60;99.90;;;;;;6202207;28;20403;-80
2024/03/19 03:14:40;;;;;;;9.13;1.98;;;10.60;99.90;;;;;;6183293;28;20119;-78
2024/03/19 03:17:40;;;;;;;12.50;2.35;;;10.60;99.90;;;;;;6185142;28;20409;-78
2024/03/19 03:20:41;;;;;;;7.57;2.05;;;10.70;99.90;;;;;;6201135;28;20057;-78
2024/03/19 03:23:42;;;;;;;7.78;2.05;;;10.70;99.90;;;;;;6201570;28;20054;-79
2024/03/19 03:26:44;;;;;;;9.98;2.17;;;10.70;99.90;;;;;;6201940;28;20166;-79
2024/03/19 03:29:46;;;;;;;11.52;2.20;;;10.70;99.90;;;;;;6200668;28;20335;-78
2024/03/19 03:32:46;;;;;;;16.73;2.47;;;10.70;99.90;;;;;;6200034;28;20097;-81
2024/03/19 03:35:47;;;;;;;8.75;2.10;;;10.80;99.90;;;;;;6201913;28;20148;-80
2024/03/19 03:38:48;;;;;;;12.32;2.28;;;10.80;99.90;;;;;;6192952;28;20128;-81
2024/03/19 03:41:48;;;;;;;11.70;3.10;;;10.80;99.90;;;;;;6191643;28;20068;-80
2024/03/19 03:44:49;;;;;;;9.20;2.08;;;10.80;99.90;;;;;;6195989;28;20095;-79
2024/03/19 03:47:50;;;;;;;9.82;1.88;;;10.70;99.90;;;;;;6201251;28;20097;-79
2024/03/19 03:50:50;;;;;;;9.23;2.30;;;10.70;99.90;;;;;;6201270;28;20062;-80
2024/03/19 03:53:51;;;;;;;12.13;2.35;;;10.70;99.90;;;;;;6201285;28;20054;-79
2024/03/19 03:56:52;;;;;;;10.05;2.05;;;10.60;99.90;;;;;;6185283;28;20111;-80
2024/03/19 03:59:52;;;;;;;6.60;1.75;;;10.50;99.90;;;;;;6182750;28;20066;-80
2024/03/19 04:02:53;;;;;;;10.65;2.17;;;10.50;99.90;;;;;;6184913;28;20484;-80
2024/03/19 04:05:54;;;;;;;9.75;1.92;;;10.50;99.90;;;;;;6201708;28;20050;-80
2024/03/19 04:08:54;;;;;;;9.23;1.73;;;10.50;99.90;;;;;;6202523;28;20429;-80
2024/03/19 04:11:55;;;;;;;11.25;2.10;;;10.50;99.90;;;;;;6206286;28;20085;-80
2024/03/19 04:14:56;;;;;;;9.23;1.75;;;10.50;99.90;;;;;;6184490;28;20136;-79
2024/03/19 04:17:56;;;;;;;10.15;2.10;;;10.50;99.90;;;;;;6206184;28;20064;-79
2024/03/19 04:20:57;;;;;;;6.15;1.70;;;10.30;99.90;;;;;;6205991;28;20065;-80
2024/03/19 04:23:59;;;;;;;11.38;1.95;;;10.30;99.90;;;;;;6205599;28;20058;-80
2024/03/19 04:27:00;;;;;;;11.95;1.92;;;10.40;99.90;;;;;;6206275;28;20061;-79
2024/03/19 04:30:01;;;;;;;9.77;1.85;;;10.40;99.90;;;;;;6171070;28;20061;-77
2024/03/19 04:33:02;;;;;;;8.95;1.67;;;10.40;99.90;;;;;;6189136;28;20054;-81
2024/03/19 04:36:02;;;;;;;7.55;1.50;;;10.40;99.90;;;;;;6206145;28;20413;-79
2024/03/19 04:39:03;;;;;;;9.52;1.63;;;10.40;99.90;;;;;;6193809;28;20065;-80
2024/03/19 04:42:04;;;;;;;6.90;1.65;;;10.50;99.90;;;;;;6205242;28;20054;-78
2024/03/19 04:45:06;;;;;;;11.02;1.73;;;10.50;99.90;;;;;;6194207;23;20062;-84
2024/03/19 04:48:07;;;;;;;5.13;1.70;;;10.50;99.90;;;;;;6205671;28;20060;-84
2024/03/19 04:51:08;;;;;;;7.90;1.70;;;10.60;99.90;;;;;;6205892;28;20061;-84
2024/03/19 04:54:09;;;;;;;10.70;1.98;;;10.70;99.90;;;;;;6205579;28;20057;-84
2024/03/19 04:57:09;;;;;;;6.88;1.50;;;10.70;99.90;;;;;;6182086;28;20061;-84
2024/03/19 05:00:10;;;;;;;8.93;1.77;;;10.70;99.90;;;;;;6193631;28;20054;-84
2024/03/19 05:03:11;;;;;;;9.23;1.80;;;10.80;99.90;;;;;;6197690;28;20513;-84
2024/03/19 05:06:12;;;;;;;10.40;1.60;;;10.80;99.90;;;;;;6207518;28;20097;-84
2024/03/19 05:09:14;;;;;;;7.07;1.80;;;10.80;99.90;;;;;;6205959;28;20058;-84
2024/03/19 05:12:15;;;;;;;8.50;1.67;;;10.90;99.90;;;;;;6205961;28;20054;-83
2024/03/19 05:15:16;;;;;;;13.98;1.85;;;10.90;99.90;;;;;;6200202;28;20056;-83
2024/03/19 05:18:17;;;;;;;13.95;1.95;;;10.80;99.90;;;;;;6204300;28;20054;-84
2024/03/19 05:21:18;;;;;;;6.85;1.48;;;10.90;99.90;;;;;;6206537;28;20061;-83
2024/03/19 05:24:19;;;;;;;8.43;1.63;;;10.90;99.90;;;;;;6205957;28;20050;-83
2024/03/19 05:27:20;;;;;;;6.70;1.55;;;10.90;99.90;;;;;;6203330;28;20058;-83
2024/03/19 05:30:21;;;;;;;9.07;1.92;;;10.90;99.90;;;;;;6199668;28;20081;-82
2024/03/19 05:33:21;;;;;;;8.88;2.25;;;10.90;99.90;;;;;;6204685;28;20046;-83
2024/03/19 05:36:22;;;;;;;14.20;2.03;;;10.90;99.90;;;;;;6206314;28;20064;-83
2024/03/19 05:39:24;;;;;;;9.95;2.00;;;10.80;99.90;;;;;;6202862;28;20484;-83
2024/03/19 05:42:25;;;;;;;8.70;1.67;;;10.80;99.90;;;;;;6204931;28;20069;-83
2024/03/19 05:45:25;;;;;;;10.32;2.33;;;10.80;99.90;;;;;;6177169;28;20054;-83
2024/03/19 05:48:26;;;;;;;9.23;1.65;;;10.80;99.90;;;;;;6204148;28;20057;-82
2024/03/19 05:51:27;;;;;;;7.97;1.70;;;10.80;99.90;;;;;;6205562;28;20057;-82
2024/03/19 05:54:27;;;;;;;8.93;1.73;;;10.80;99.90;;;;;;6202788;28;20058;-84
2024/03/19 05:57:28;;;;;;;13.98;1.83;;;10.80;99.90;;;;;;6180825;28;20426;-83
2024/03/19 06:00:29;;;;;;;12.68;2.05;;;10.80;99.90;;;;;;6192687;28;20057;-83
2024/03/19 06:03:32;;;;;;;10.27;2.20;;;10.90;99.90;;;;;;6204273;28;20488;-82
2024/03/19 06:06:32;;;;;;;11.48;2.03;;;10.90;99.90;;;;;;6205206;28;20072;-83
2024/03/19 06:09:33;;;;;;;11.93;2.00;;;10.90;99.90;;;;;;6201854;28;20080;-83
2024/03/19 06:12:34;;;;;;;9.93;1.90;;;10.90;99.90;;;;;;6204188;28;20057;-84
2024/03/19 06:15:35;;;;;;;7.95;1.65;;;10.90;99.90;;;;;;6197563;28;20061;-82
2024/03/19 06:18:37;;;;;;;10.95;2.10;;;10.90;99.90;;;;;;6203991;28;20104;-83
2024/03/19 06:21:37;;;;;;;13.75;2.47;;;10.90;99.90;;;;;;6205155;28;20399;-85
2024/03/19 06:24:38;;;;;;;9.57;2.15;;;10.90;99.90;;;;;;6205468;28;20061;-84
2024/03/19 06:27:38;;;;;;;9.90;1.75;;;10.90;99.90;;;;;;6205288;28;20053;-86
2024/03/19 06:30:39;;;;;;;12.88;1.90;;;11.00;99.90;;;;;;6203394;28;20525;-86
2024/03/19 06:33:40;;;;;;;11.40;2.20;;;11.00;99.90;;;;;;6204064;28;20050;-84
2024/03/19 06:36:41;;;;;;;9.27;1.73;;;11.00;99.90;;;;;;6180053;28;20054;-88
2024/03/19 06:39:43;;;;;;;13.75;1.85;;;11.10;99.90;;;;;;6189150;28;20132;-85
2024/03/19 06:42:43;;;;;;;9.70;2.00;;;11.10;99.90;;;;;;6206703;28;20053;-87
2024/03/19 06:45:44;;;;;;;8.63;2.25;;;11.10;99.90;;;;;;6174813;28;20065;-85
2024/03/19 06:48:45;;;;;;;8.35;2.22;;;11.20;99.90;;;;;;6199378;28;20510;-83
2024/03/19 06:51:46;;;;;;;12.55;2.25;;;11.20;99.90;;;;;;6205724;28;20514;-85
2024/03/19 06:54:46;;;;;;;9.18;2.05;;;11.30;99.90;;;;;;6178749;28;20058;-87
2024/03/19 06:57:47;;;;;;;14.02;2.10;;;11.30;99.90;;;;;;6206972;28;20068;-82
2024/03/19 07:00:51;;;;;;;10.25;2.22;;;11.40;99.90;;;;;;6185726;28;20056;-85
2024/03/19 07:03:51;;;;;;;12.65;2.63;;;11.40;99.90;;;;;;6185895;28;20056;-85
2024/03/19 07:06:53;;;;;;;11.15;2.30;;;11.40;99.90;;;;;;6207336;28;20093;-86
2024/03/19 07:09:55;;;;;;;10.27;2.28;;;11.40;99.90;;;;;;6189401;28;20052;-86
2024/03/19 07:12:56;;;;;;;11.10;2.28;;;11.60;99.90;;;;;;6206017;28;20058;-86
2024/03/19 07:15:57;;;;;;;7.13;1.40;;;12.10;99.90;;;;;;6180323;28;20054;-86
2024/03/19 07:18:57;;;;;;;9.13;1.60;;;12.70;92.20;;;;;;6199409;28;20092;-86
2024/03/19 07:21:58;;;;;;;11.77;1.83;;;13.00;91.40;;;;;;6206426;28;20163;-88
2024/03/19 07:24:59;;;;;;;9.00;1.30;;;13.70;75.00;;;;;;6204983;28;20164;-86
2024/03/19 07:28:00;;;;;;;8.13;1.85;;;13.70;66.60;;;;;;6206184;28;20050;-88
2024/03/19 07:31:02;;;;;;;11.13;1.90;;;13.40;68.00;;;;;;6182649;28;20841;-83
2024/03/19 07:34:03;;;;;;;9.35;1.33;;;13.20;73.40;;;;;;6183951;28;20054;-84
2024/03/19 07:37:04;;;;;;;7.05;1.20;;;13.30;78.90;;;;;;6187364;28;20533;-83
2024/03/19 07:40:05;;;;;;;7.13;1.30;;;13.10;75.90;;;;;;6181992;28;20073;-85
2024/03/19 07:43:05;;;;;;;8.60;1.55;;;13.20;80.30;;;;;;6208011;28;20063;-88
2024/03/19 07:46:06;;;;;;;9.48;1.58;;;13.10;80.50;;;;;;6203319;28;20065;-87
2024/03/19 07:49:07;;;;;;;8.43;1.92;;;13.00;83.00;;;;;;6216036;28;20060;-88
2024/03/19 07:52:08;;;;;;;11.65;2.00;;;13.10;83.30;;;;;;6214870;28;20089;-88
2024/03/19 07:55:09;;;;;;;8.57;1.70;;;13.10;83.10;;;;;;6214667;28;20053;-86
2024/03/19 07:58:10;;;;;;;7.80;1.67;;;13.10;78.20;;;;;;6212963;28;20124;-85
2024/03/19 08:01:11;;;;;;;12.10;2.08;;;13.10;73.80;;;;;;6185684;28;20093;-85
2024/03/19 08:04:12;;;;;;;9.68;2.17;;;13.00;79.40;;;;;;6207362;28;20057;-86
2024/03/19 08:07:12;;;;;;;9.65;1.95;;;13.00;81.80;;;;;;6213871;28;20045;-86
2024/03/19 08:10:13;;;;;;;9.95;2.00;;;13.00;79.10;;;;;;6217411;28;20056;-88
2024/03/19 08:13:14;;;;;;;12.23;1.80;;;13.10;76.10;;;;;;6218705;28;20077;-86
2024/03/19 08:16:15;;;;;;;9.82;1.80;;;13.20;81.50;;;;;;6206154;28;20517;-86
2024/03/19 08:19:16;;;;;;;10.57;1.75;;;13.30;73.10;;;;;;6200364;28;20050;-87
2024/03/19 08:22:17;;;;;;;11.18;2.28;;;13.30;74.50;;;;;;6215882;28;20057;-81
2024/03/19 08:25:18;;;;;;;7.47;1.88;;;13.30;74.70;;;;;;6211056;28;20493;-86
2024/03/19 08:28:19;;;;;;;8.90;1.85;;;13.20;77.00;;;;;;6210676;28;20156;-84
2024/03/19 08:31:20;;;;;;;12.88;1.83;;;13.20;74.60;;;;;;6204640;28;20053;-88
2024/03/19 08:34:21;;;;;;;7.97;1.55;;;13.10;78.80;;;;;;6216670;28;20136;-88
2024/03/19 08:37:22;;;;;;;14.52;1.85;;;13.00;81.60;;;;;;6218984;28;20730;-86
2024/03/19 08:40:23;;;;;;;9.15;1.98;;;12.90;82.20;;;;;;6219357;28;20053;-88
2024/03/19 08:43:24;;;;;;;11.40;1.70;;;12.90;85.00;;;;;;6193980;28;20050;-87
2024/03/19 08:46:25;;;;;;;9.07;1.90;;;13.00;86.50;;;;;;6214711;28;20108;-90
2024/03/19 08:49:26;;;;;;;11.55;2.08;;;13.10;86.90;;;;;;6217986;28;20053;-83
2024/03/19 08:52:27;;;;;;;16.58;2.05;;;13.10;84.40;;;;;;6211911;28;20508;-87
2024/03/19 08:55:28;;;;;;;8.50;1.65;;;13.20;81.30;;;;;;6190259;28;20440;-86
2024/03/19 08:58:29;;;;;;;11.93;2.22;;;13.10;81.80;;;;;;6188225;28;20069;-83
2024/03/19 09:01:30;;;;;;;9.23;1.67;;;13.10;85.30;;;;;;6206720;28;20054;-84
2024/03/19 09:04:30;;;;;;;7.80;1.40;;;13.30;89.00;;;;;;6213460;28;20125;-81
2024/03/19 09:07:31;;;;;;;9.25;1.85;;;13.20;84.20;;;;;;6218357;28;21044;-84
2024/03/19 09:10:33;;;;;;;9.73;1.73;;;13.30;88.60;;;;;;6192464;28;20054;-85
2024/03/19 09:13:34;;;;;;;9.85;1.73;;;13.40;85.90;;;;;;6218312;28;20801;-84
2024/03/19 09:16:35;;;;;;;9.52;1.80;;;13.50;82.10;;;;;;6233064;28;20109;-83
2024/03/19 09:19:36;;;;;;;6.72;1.48;;;13.60;84.60;;;;;;6209660;28;20062;-83
2024/03/19 09:22:36;;;;;;;7.80;1.70;;;13.80;75.60;;;;;;6203685;28;20176;-84
2024/03/19 09:25:37;;;;;;;8.45;1.63;;;13.90;71.90;;;;;;6185943;28;20058;-85
2024/03/19 09:28:38;;;;;;;9.60;1.83;;;14.10;72.50;;;;;;6194041;28;20068;-84
2024/03/19 09:31:39;;;;;;;7.05;1.77;;;14.00;68.20;;;;;;6182219;28;20054;-85
2024/03/19 09:34:39;;;;;;;6.88;1.60;;;13.90;70.30;;;;;;6205284;28;20072;-84
2024/03/19 09:37:41;;;;;;;8.57;1.70;;;13.60;67.70;;;;;;6181803;28;20081;-84
2024/03/19 09:40:41;;;;;;;5.90;1.42;;;13.70;80.70;;;;;;6203601;28;20494;-85
2024/03/19 09:43:42;;;;;;;5.00;1.30;;;13.70;75.00;;;;;;6178693;28;20061;-84
2024/03/19 09:46:43;;;;;;;8.95;1.67;;;13.80;75.40;;;;;;6205084;28;20069;-84
2024/03/19 09:49:44;;;;;;;4.07;1.10;;;14.10;75.30;;;;;;6180295;28;20058;-85
2024/03/19 09:52:45;;;;;;;9.65;1.70;;;14.20;69.50;;;;;;6205354;28;20521;-87
2024/03/19 09:55:46;;;;;;;6.68;1.13;;;14.50;72.40;;;;;;6182431;28;20065;-88
2024/03/19 09:58:47;;;;;;;6.07;1.00;;;14.50;49.70;;;;;;6196216;28;20050;-85
2024/03/19 10:01:48;;;;;;;5.55;1.00;;;14.40;54.30;;;;;;6183847;28;20413;-93
2024/03/19 10:04:49;;;;;;;5.72;1.20;;;14.20;59.40;;;;;;6214724;28;20084;-91
2024/03/19 10:07:51;;;;;;;5.07;1.20;;;14.40;64.00;;;;;;6212507;28;20142;-92
2024/03/19 10:10:52;;;;;;;4.50;1.33;;;14.40;66.00;;;;;;6189741;28;20062;-87
2024/03/19 10:13:52;;;;;;;4.40;1.02;;;14.50;62.40;;;;;;6195103;28;20049;-86
2024/03/19 10:16:53;;;;;;;5.15;1.60;;;14.40;59.50;;;;;;6180942;28;20070;-86
2024/03/19 10:19:54;;;;;;;4.38;1.20;;;14.30;57.50;;;;;;6206381;28;20399;-86
2024/03/19 10:22:55;;;;;;;5.97;1.30;;;14.20;60.80;;;;;;6170684;28;20458;-87
2024/03/19 10:25:55;;;;;;;5.55;1.30;;;14.20;61.20;;;;;;6189377;28;20054;-87
2024/03/19 10:28:58;;;;;;;7.38;1.73;;;14.30;65.00;;;;;;6177892;28;20058;-85
2024/03/19 10:31:59;;;;;;;5.00;1.10;;;14.20;55.90;;;;;;6190497;28;20054;-89
2024/03/19 10:35:00;;;;;;;7.57;1.30;;;14.20;69.20;;;;;;6190043;28;20061;-86
2024/03/19 10:38:00;;;;;;;4.32;0.90;;;14.20;57.40;;;;;;6188825;28;20082;-85
2024/03/19 10:41:01;;;;;;;4.93;1.00;;;14.20;58.50;;;;;;6202491;28;20107;-84
2024/03/19 10:44:02;;;;;;;4.30;1.10;;;14.30;65.70;;;;;;6178073;28;20140;-87
2024/03/19 10:47:03;;;;;;;4.45;1.30;;;14.30;61.80;;;;;;6187246;28;20135;-88
2024/03/19 10:50:04;;;;;;;4.85;1.02;;;14.20;63.80;;;;;;6188300;28;20115;-86
2024/03/19 10:53:05;;;;;;;6.25;1.23;;;14.20;67.00;;;;;;6187239;28;20509;-87
2024/03/19 10:56:06;;;;;;;4.97;1.17;;;14.10;68.70;;;;;;6204555;28;20118;-88
2024/03/19 10:59:07;;;;;;;4.65;1.33;;;14.20;75.30;;;;;;6172171;28;20509;-89
2024/03/19 11:02:08;;;;;;;4.22;1.25;;;14.50;69.40;;;;;;6164442;28;20133;-83
2024/03/19 11:05:08;;;;;;;6.32;1.40;;;14.70;60.70;;;;;;6204217;28;20089;-87
2024/03/19 11:08:09;;;;;;;8.20;1.40;;;14.70;56.90;;;;;;6183590;28;20047;-87
2024/03/19 11:11:10;;;;;;;6.25;1.40;;;14.80;59.30;;;;;;6206424;28;20096;-90
2024/03/19 11:14:12;;;;;;;5.55;1.60;;;14.70;65.80;;;;;;6192487;28;20054;-91
2024/03/19 11:17:13;;;;;;;7.35;1.48;;;14.50;55.00;;;;;;6193887;28;20065;-87
2024/03/19 11:20:14;;;;;;;7.40;1.60;;;14.40;63.70;;;;;;6172036;28;20068;-91
2024/03/19 11:23:15;;;;;;;5.85;1.95;;;14.30;65.90;;;;;;6222021;28;20109;-93
2024/03/19 11:26:16;;;;;;;6.88;1.80;;;14.20;73.20;;;;;;6203214;28;20376;-92
2024/03/19 11:29:17;;;;;;;7.30;2.05;;;14.10;84.00;;;;;;6168005;28;20050;-92
2024/03/19 11:32:35;;;;;;;9.93;1.90;;;14.10;90.60;;;;;;6229543;28;20579;-88
2024/03/19 11:35:35;;;;;;;5.85;1.50;;;14.00;88.40;;;;;;6208754;28;20080;-88
2024/03/19 11:38:36;;;;;;;4.78;1.48;;;14.00;90.70;;;;;;6206854;28;20046;-89
2024/03/19 11:41:37;;;;;;;4.97;1.60;;;13.90;84.20;;;;;;6178400;28;20144;-89
2024/03/19 11:44:38;;;;;;;9.75;1.60;;;13.80;87.40;;;;;;6163104;28;20531;-86
2024/03/19 11:47:39;;;;;;;5.57;1.33;;;14.00;90.20;;;;;;6201773;28;20110;-86
2024/03/19 11:50:39;;;;;;;5.85;1.40;;;14.10;86.10;;;;;;6202075;28;20156;-84
2024/03/19 11:53:40;;;;;;;3.95;1.30;;;14.00;81.10;;;;;;6178429;28;20192;-86
2024/03/19 11:56:42;;;;;;;5.93;1.20;;;14.00;84.70;;;;;;6201525;28;20093;-85
2024/03/19 11:59:42;;;;;;;5.57;1.15;;;14.00;79.20;;;;;;6179349;28;20466;-82
2024/03/19 12:02:43;;;;;;;4.93;1.10;;;13.80;88.80;;;;;;6210711;28;20049;-89
2024/03/19 12:05:45;;;;;;;4.78;1.20;;;13.90;84.30;;;;;;6190378;28;20065;-89
2024/03/19 12:08:46;;;;;;;6.82;1.55;;;14.10;84.00;;;;;;6182126;28;20463;-88
2024/03/19 12:11:46;;;;;;;5.07;1.10;;;14.00;81.60;;;;;;6205740;28;20099;-94
2024/03/19 12:14:47;;;;;;;5.38;1.13;;;14.00;89.50;;;;;;6181895;28;20504;-91
2024/03/19 12:17:48;;;;;;;6.03;1.08;;;14.10;85.90;;;;;;6203694;28;20136;-90
2024/03/19 12:20:49;;;;;;;3.58;0.88;;;14.30;84.90;;;;;;6192345;28;20084;-95
2024/03/19 12:23:50;;;;;;;3.20;0.70;;;14.50;66.60;;;;;;6189708;28;20065;-85
2024/03/19 12:26:51;;;;;;;2.17;0.80;;;14.40;68.70;;;;;;6205193;28;20062;-89
2024/03/19 12:29:52;;;;;;;2.15;0.88;;;14.50;79.70;;;;;;6176200;28;20069;-91
2024/03/19 12:36:06;;;;;;;2.80;0.80;;;14.70;66.00;;;;;;6197427;28;20065;-84
2024/03/19 12:39:06;;;;;;;2.33;0.70;;;14.50;69.20;;;;;;6180590;28;20497;-84
2024/03/19 12:42:07;;;;;;;5.35;0.93;;;14.60;66.70;;;;;;6204971;28;20064;-85
2024/03/19 12:45:08;;;;;;;4.25;1.00;;;14.70;69.30;;;;;;6188905;28;20055;-85
2024/03/19 12:48:09;;;;;;;2.00;0.70;;;14.70;66.40;;;;;;6197208;28;20197;-83
2024/03/19 12:51:10;;;;;;;3.25;0.90;;;14.70;65.70;;;;;;6174353;28;20063;-84
2024/03/19 12:54:10;;;;;;;3.03;1.00;;;14.70;73.50;;;;;;6196367;28;20058;-84
2024/03/19 12:57:11;;;;;;;2.63;0.80;;;14.60;69.20;;;;;;6157292;28;20101;-82
2024/03/19 13:00:11;;;;;;;2.30;0.85;;;14.50;74.20;;;;;;6164630;28;20136;-82
2024/03/19 13:03:12;;;;;;;4.15;0.90;;;14.50;72.00;;;;;;6157051;28;20065;-82
2024/03/19 13:06:13;;;;;;;2.75;1.00;;;14.40;81.00;;;;;;6196689;28;20093;-82
2024/03/19 13:09:15;;;;;;;2.60;0.90;;;14.40;80.90;;;;;;6173498;28;20059;-82
2024/03/19 13:12:16;;;;;;;3.65;1.00;;;14.40;85.20;;;;;;6180151;28;20502;-82
2024/03/19 13:15:19;;;;;;;4.07;1.10;;;14.40;79.60;;;;;;6170882;28;20069;-82
2024/03/19 13:18:20;;;;;;;2.53;0.90;;;14.20;78.90;;;;;;6172951;28;20066;-81
2024/03/19 13:21:22;;;;;;;3.83;1.10;;;14.10;81.90;;;;;;6195735;28;20054;-83
2024/03/19 13:24:23;;;;;;;4.45;0.90;;;14.00;85.80;;;;;;6172520;28;20470;-83
2024/03/19 13:27:24;;;;;;;2.80;0.90;;;14.20;90.20;;;;;;6195892;28;20072;-81
2024/03/19 13:30:25;;;;;;;2.70;1.00;;;14.20;82.50;;;;;;6145631;28;20059;-83
2024/03/19 13:33:26;;;;;;;3.88;0.98;;;14.20;82.60;;;;;;6195345;28;20576;-83
2024/03/19 13:36:26;;;;;;;2.58;0.98;;;14.40;82.70;;;;;;6172788;28;20622;-84
2024/03/19 13:39:27;;;;;;;2.13;1.00;;;14.60;78.30;;;;;;6196137;28;20058;-84
2024/03/19 13:42:30;;;;;;;3.90;1.10;;;14.60;72.60;;;;;;6155809;28;20515;-83
2024/03/19 13:45:31;;;;;;;2.60;0.95;;;14.30;76.20;;;;;;6179195;28;20066;-83
2024/03/19 13:48:32;;;;;;;4.85;1.08;;;14.10;82.30;;;;;;6195683;28;20066;-83
2024/03/19 13:51:33;;;;;;;2.92;1.10;;;14.20;83.00;;;;;;6172539;28;20464;-84
2024/03/19 13:54:33;;;;;;;2.55;1.00;;;14.20;83.30;;;;;;6194908;28;20058;-84
2024/03/19 13:57:35;;;;;;;3.22;0.90;;;14.20;81.00;;;;;;6175976;28;20070;-88
2024/03/19 14:00:37;;;;;;;2.30;0.95;;;14.10;88.90;;;;;;6179731;28;20052;-83
2024/03/19 14:03:38;;;;;;;3.50;1.00;;;14.20;86.90;;;;;;6205611;28;20057;-91
2024/03/19 14:06:39;;;;;;;2.60;1.10;;;14.20;84.20;;;;;;6193407;28;20105;-86
2024/03/19 14:09:40;;;;;;;2.67;1.00;;;14.00;89.80;;;;;;6176291;28;20065;-88
2024/03/19 14:12:41;;;;;;;2.63;1.10;;;14.00;90.30;;;;;;6182605;28;20647;-90
2024/03/19 14:15:41;;;;;;;3.00;1.33;;;14.00;91.70;;;;;;6174314;28;20058;-88
2024/03/19 14:18:42;;;;;;;4.22;1.50;;;13.90;92.00;;;;;;6180674;28;20429;-89
2024/03/19 14:21:44;;;;;;;2.03;1.13;;;13.80;92.00;;;;;;6180742;28;20152;-87
2024/03/19 14:24:47;;;;;;;3.88;1.40;;;13.70;92.00;;;;;;6194053;28;20061;-85
2024/03/19 14:27:48;;;;;;;5.55;1.50;;;13.80;93.00;;;;;;6194435;28;20065;-86
2024/03/19 14:30:50;;;;;;;3.70;1.30;;;13.90;92.70;;;;;;6189916;28;20070;-85
2024/03/19 14:33:51;;;;;;;3.60;1.38;;;13.80;92.00;;;;;;6179038;28;20054;-83
2024/03/19 14:36:52;;;;;;;5.15;1.70;;;14.00;91.50;;;;;;6177879;28;20054;-91
2024/03/19 14:39:53;;;;;;;3.10;1.30;;;14.10;92.30;;;;;;6182360;28;20062;-85
2024/03/19 14:42:54;;;;;;;3.47;1.50;;;14.10;90.70;;;;;;6179153;28;20089;-84
2024/03/19 14:45:55;;;;;;;5.22;1.33;;;14.30;90.90;;;;;;6178077;28;20058;-84
2024/03/19 14:48:55;;;;;;;4.43;1.40;;;14.20;89.60;;;;;;6179368;28;20062;-84
2024/03/19 14:51:57;;;;;;;5.15;1.88;;;14.30;90.20;;;;;;6188814;28;20125;-83
2024/03/19 14:54:59;;;;;;;3.00;1.40;;;14.20;88.40;;;;;;6187413;28;20054;-82
2024/03/19 14:58:00;;;;;;;4.80;1.25;;;14.00;91.00;;;;;;6185562;28;20510;-86
2024/03/19 15:01:01;;;;;;;3.15;1.25;;;14.20;93.00;;;;;;6169876;28;20125;-86
2024/03/19 15:04:02;;;;;;;3.38;1.40;;;14.00;92.10;;;;;;6181482;28;20133;-85
2024/03/19 15:07:03;;;;;;;3.88;1.42;;;13.90;93.10;;;;;;6172191;28;20073;-88
2024/03/19 15:10:04;;;;;;;3.55;1.50;;;13.70;95.10;;;;;;6170380;28;20114;-86
2024/03/19 15:13:10;;;;;;;5.85;1.50;;;13.60;95.40;;;;;;6180761;28;20054;-86
2024/03/19 15:16:11;;;;;;;7.88;1.45;;;13.60;98.10;;;;;;6154155;28;20059;-86
2024/03/19 15:19:12;;;;;;;6.90;1.70;;;13.50;97.70;;;;;;6143851;28;20046;-83
2024/03/19 15:22:13;;;;;;;2.60;1.20;;;13.60;96.80;;;;;;6156965;28;20063;-88
2024/03/19 15:25:14;;;;;;;6.43;1.70;;;13.60;98.10;;;;;;6172646;28;20504;-85
2024/03/19 15:28:15;;;;;;;4.53;1.50;;;13.60;98.00;;;;;;6162011;28;20055;-78
2024/03/19 15:31:16;;;;;;;3.35;1.30;;;13.70;99.30;;;;;;6182989;28;20054;-86
2024/03/19 15:34:17;;;;;;;3.45;1.27;;;13.70;96.70;;;;;;6176956;28;20060;-87
2024/03/19 15:37:18;;;;;;;5.28;1.40;;;13.60;97.50;;;;;;6172292;28;20061;-88
2024/03/19 15:40:18;;;;;;;3.03;1.48;;;13.60;96.30;;;;;;6169495;28;20102;-88